Ruso, North Dakota
Current Conditions -  °F | °C
As of 7:29 PM on Sunday 21 Dec 2014 (Local Time) from KMOT Reporting Station
Haze Haze  
Wind Chill: 21°   Ceiling: 500
Heat Index: 30°   Visibility: 6mi
Dew Point: 27°   Wind: 12mph
Humidity: 88%   Direction: 100°E
Pressure: 29.42"   Gusts: NA
Location:  47.84°N, 100.93°W
Report Text: KMOT 220129Z 10010KT 6SM BR BKN005 OVC100 M01/M03 A2942 RMK AO2 T10111028 $
Loading
Personal Weather Stations






























Interactive Weather Map New forecast layout! Learn more

10-Day Weather Forecast

Advertisements
Track Severe Weather on mobile